createdAt,value
2023-02-11T00:00:02.598Z,72
2023-02-11T00:20:02.385Z,72
2023-02-11T00:40:06.784Z,72
2023-02-11T01:00:03.265Z,72
2023-02-11T01:20:02.803Z,73
2023-02-11T01:40:03.192Z,73
2023-02-11T02:00:02.602Z,73
2023-02-11T02:20:02.413Z,74
2023-02-11T02:40:02.772Z,74
2023-02-11T03:00:03.135Z,74
2023-02-11T03:20:02.757Z,74
2023-02-11T03:40:03.101Z,74
2023-02-11T04:00:02.555Z,74
2023-02-11T04:20:03.191Z,75
2023-02-11T04:40:02.618Z,75
2023-02-11T05:00:02.919Z,75
2023-02-11T05:20:02.382Z,76
2023-02-11T05:40:02.984Z,77
2023-02-11T06:00:02.386Z,78
2023-02-11T06:20:02.682Z,79
2023-02-11T06:40:03.362Z,80
2023-02-11T07:00:02.963Z,81
2023-02-11T07:20:02.552Z,82
2023-02-11T07:40:02.908Z,83
2023-02-11T08:00:02.397Z,83
2023-02-11T08:20:03.305Z,84
2023-02-11T08:40:02.716Z,84
2023-02-11T09:00:03.223Z,84
2023-02-11T09:20:03.001Z,85
2023-02-11T09:40:02.848Z,85
2023-02-11T10:00:03.206Z,86
2023-02-11T10:20:02.868Z,87
2023-02-11T10:40:02.385Z,87
2023-02-11T11:00:03.188Z,88
2023-02-11T11:20:03.131Z,89
2023-02-11T11:40:02.617Z,89
2023-02-11T12:00:03.241Z,89
2023-02-11T12:20:02.808Z,90
2023-02-11T12:40:03.286Z,90
2023-02-11T13:00:03.001Z,90
2023-02-11T13:20:03.271Z,90
2023-02-11T13:40:02.635Z,91
2023-02-11T14:00:03.489Z,91
2023-02-11T14:20:03.333Z,91
2023-02-11T14:40:02.807Z,91
2023-02-11T15:00:05.891Z,91
2023-02-11T15:20:02.398Z,92
2023-02-11T15:40:02.814Z,92
2023-02-11T16:00:03.846Z,92
2023-02-11T16:20:02.617Z,92
2023-02-11T16:40:03.059Z,92
2023-02-11T17:00:03.478Z,92
2023-02-11T17:20:02.662Z,93
2023-02-11T17:40:03.142Z,93
2023-02-11T18:00:04.808Z,92
2023-02-11T18:20:02.669Z,93
2023-02-11T18:40:03.147Z,92
2023-02-11T19:00:03.153Z,92
2023-02-11T19:20:03.117Z,92
2023-02-11T19:40:02.551Z,92
2023-02-11T20:00:03.585Z,92
2023-02-11T20:20:02.577Z,92
2023-02-11T20:40:03.766Z,92
2023-02-11T21:00:03.388Z,92
2023-02-11T21:20:03.160Z,92
2023-02-11T21:40:02.657Z,92
2023-02-11T22:00:03.063Z,92
2023-02-11T22:20:02.574Z,92
2023-02-11T22:40:03.039Z,92
2023-02-11T23:00:03.907Z,92
2023-02-11T23:20:02.426Z,91
2023-02-11T23:40:02.869Z,91
